createdAt,value
2022-09-07T00:01:01.107Z,23.60
2022-09-07T00:03:27.967Z,23.60
2022-09-07T00:05:54.838Z,23.50
2022-09-07T00:08:24.802Z,23.50
2022-09-07T00:10:56.533Z,23.50
2022-09-07T00:13:24.561Z,23.50
2022-09-07T00:15:51.595Z,23.50
2022-09-07T00:18:18.485Z,23.40
2022-09-07T00:20:45.666Z,23.40
2022-09-07T00:23:12.794Z,23.40
2022-09-07T00:25:40.361Z,23.40
2022-09-07T00:28:08.376Z,23.50
2022-09-07T00:30:40.657Z,23.50
2022-09-07T00:33:09.199Z,23.60
2022-09-07T00:35:42.189Z,23.60
2022-09-07T00:38:09.092Z,23.60
2022-09-07T00:40:36.105Z,23.60
2022-09-07T00:43:03.299Z,23.70
2022-09-07T00:45:30.147Z,23.60
2022-09-07T00:48:16.906Z,23.60
2022-09-07T00:51:01.561Z,23.60
2022-09-07T00:53:33.241Z,23.50
2022-09-07T00:56:01.168Z,23.50
2022-09-07T00:58:28.228Z,23.50
2022-09-07T01:00:55.747Z,23.50
2022-09-07T01:03:38.123Z,23.40
2022-09-07T01:06:11.939Z,23.40
2022-09-07T01:08:38.896Z,23.40
2022-09-07T01:11:06.231Z,23.30
2022-09-07T01:13:32.988Z,23.30
2022-09-07T01:16:26.407Z,23.30
2022-09-07T01:19:24.441Z,23.30
2022-09-07T01:22:11.237Z,23.30
2022-09-07T01:25:00.718Z,23.30
2022-09-07T01:27:40.534Z,23.30
2022-09-07T01:30:14.471Z,23.20
2022-09-07T01:33:15.777Z,23.20
2022-09-07T01:35:48.173Z,23.20
2022-09-07T01:38:21.912Z,23.20
2022-09-07T01:41:10.110Z,23.20
2022-09-07T01:43:43.465Z,23.20
2022-09-07T01:46:31.064Z,23.20
2022-09-07T01:49:10.517Z,23.20
2022-09-07T01:51:43.247Z,23.20
2022-09-07T01:54:39.114Z,23.20
2022-09-07T01:59:50.084Z,23.10
2022-09-07T02:02:21.214Z,23.10
2022-09-07T02:05:04.679Z,23.10
2022-09-07T02:07:46.843Z,23.10
2022-09-07T02:10:19.374Z,23.10
2022-09-07T02:23:18.132Z,23.00
2022-09-07T02:25:52.363Z,22.80
2022-09-07T02:28:25.847Z,22.70
2022-09-07T02:30:52.673Z,22.70
2022-09-07T02:33:19.500Z,22.70
2022-09-07T02:35:46.776Z,22.70
2022-09-07T02:38:13.612Z,22.70
2022-09-07T02:40:40.319Z,22.60
2022-09-07T02:43:09.311Z,22.60
2022-09-07T02:45:54.727Z,22.60
2022-09-07T02:48:32.144Z,22.60
2022-09-07T02:51:35.570Z,22.60
2022-09-07T02:54:05.202Z,22.60
2022-09-07T03:09:45.966Z,22.50
2022-09-07T03:12:12.866Z,22.40
2022-09-07T03:14:41.618Z,22.40
2022-09-07T03:17:09.341Z,22.40
2022-09-07T03:19:36.577Z,22.40
2022-09-07T03:22:04.151Z,22.40
2022-09-07T03:24:31.176Z,22.30
2022-09-07T03:26:58.453Z,22.30
2022-09-07T03:29:25.187Z,22.30
2022-09-07T03:31:51.908Z,22.30
2022-09-07T03:34:18.693Z,22.30
2022-09-07T03:36:45.454Z,22.30
2022-09-07T03:39:13.205Z,22.30
2022-09-07T03:41:40.129Z,22.20
2022-09-07T03:44:07.715Z,22.30
2022-09-07T03:46:35.011Z,22.20
2022-09-07T04:21:13.351Z,22.30
2022-09-07T04:23:41.232Z,22.00
2022-09-07T04:26:14.190Z,21.90
2022-09-07T04:28:40.998Z,21.90
2022-09-07T04:31:07.820Z,21.90
2022-09-07T04:33:34.622Z,21.90
2022-09-07T04:36:02.183Z,21.90
2022-09-07T04:38:29.865Z,21.90
2022-09-07T04:41:09.792Z,21.90
2022-09-07T04:43:37.809Z,21.80
2022-09-07T04:46:07.447Z,21.90
2022-09-07T04:48:34.365Z,21.80
2022-09-07T04:51:09.003Z,21.80
2022-09-07T04:53:37.783Z,21.80
2022-09-07T04:56:05.064Z,21.80
2022-09-07T04:58:32.164Z,21.80
2022-09-07T05:01:05.848Z,21.80
2022-09-07T05:03:35.507Z,21.70
2022-09-07T05:06:06.036Z,21.70
2022-09-07T05:08:41.597Z,21.70
2022-09-07T05:11:09.184Z,21.70
2022-09-07T05:13:36.078Z,21.70
2022-09-07T05:16:09.911Z,21.70
2022-09-07T05:18:36.943Z,21.70
2022-09-07T05:21:09.706Z,21.70
2022-09-07T05:23:36.719Z,21.60
2022-09-07T05:26:05.878Z,21.60
2022-09-07T05:28:34.401Z,21.60
2022-09-07T05:31:17.583Z,21.60
2022-09-07T05:36:37.461Z,21.60
2022-09-07T05:39:06.155Z,21.60
2022-09-07T05:46:46.842Z,21.50
2022-09-07T05:49:13.550Z,21.50
2022-09-07T05:51:41.148Z,21.50
2022-09-07T05:54:07.916Z,21.50
2022-09-07T05:56:36.102Z,21.50
2022-09-07T05:59:04.118Z,21.60
2022-09-07T06:01:31.715Z,21.70
2022-09-07T06:03:58.841Z,21.90
2022-09-07T06:06:25.598Z,22.10
2022-09-07T06:08:53.762Z,22.20
2022-09-07T06:11:22.777Z,22.40
2022-09-07T06:13:50.052Z,22.50
2022-09-07T06:16:18.596Z,22.60
2022-09-07T06:18:47.676Z,22.70
2022-09-07T06:21:20.347Z,22.80
2022-09-07T06:23:48.375Z,22.90
2022-09-07T06:26:16.577Z,23.00
2022-09-07T06:28:48.836Z,23.10
2022-09-07T06:31:18.910Z,23.20
2022-09-07T06:33:45.977Z,23.20
2022-09-07T06:36:14.991Z,23.30
2022-09-07T06:38:42.839Z,23.30
2022-09-07T06:44:11.514Z,23.40
2022-09-07T06:49:25.843Z,23.50
2022-09-07T06:51:52.641Z,23.50
2022-09-07T06:57:09.011Z,23.50
2022-09-07T06:59:38.103Z,23.50
2022-09-07T07:02:05.536Z,23.50
2022-09-07T07:04:37.777Z,23.50
2022-09-07T07:07:10.420Z,23.60
2022-09-07T07:09:37.497Z,23.60
2022-09-07T07:12:04.353Z,23.60
2022-09-07T07:14:34.364Z,23.60
2022-09-07T07:17:05.159Z,23.60
2022-09-07T07:19:31.889Z,23.60
2022-09-07T07:22:18.809Z,23.60
2022-09-07T07:24:45.272Z,23.60
2022-09-07T07:27:12.013Z,23.60
2022-09-07T07:29:38.718Z,23.60
2022-09-07T07:32:05.683Z,23.60
2022-09-07T07:34:33.053Z,23.60
2022-09-07T07:36:59.840Z,23.60
2022-09-07T07:42:13.112Z,23.50
2022-09-07T07:44:40.147Z,23.60
2022-09-07T07:47:06.973Z,23.50
2022-09-07T07:49:33.777Z,23.50
2022-09-07T07:54:48.717Z,23.50
2022-09-07T07:57:18.896Z,23.50
2022-09-07T07:59:45.532Z,23.50
2022-09-07T08:02:16.174Z,23.40
2022-09-07T08:04:43.146Z,23.40
2022-09-07T08:07:11.993Z,23.50
2022-09-07T08:09:40.718Z,23.50
2022-09-07T08:12:08.262Z,23.50
2022-09-07T08:14:40.496Z,23.50
2022-09-07T08:17:08.313Z,23.50
2022-09-07T08:19:34.985Z,23.50
2022-09-07T08:22:01.681Z,23.60
2022-09-07T08:24:28.362Z,23.60
2022-09-07T08:26:55.094Z,23.60
2022-09-07T08:29:24.964Z,23.60
2022-09-07T08:31:51.691Z,23.60
2022-09-07T08:34:18.472Z,23.60
2022-09-07T08:36:45.187Z,23.50
2022-09-07T08:39:11.861Z,23.40
2022-09-07T08:42:28.881Z,23.40
2022-09-07T08:45:00.576Z,23.30
2022-09-07T08:47:40.787Z,23.30
2022-09-07T08:50:18.273Z,23.20
2022-09-07T08:52:53.515Z,23.10
2022-09-07T08:55:31.466Z,23.10
2022-09-07T08:58:32.609Z,23.10
2022-09-07T09:06:54.346Z,23.10
2022-09-07T09:09:37.917Z,23.10
2022-09-07T09:12:23.529Z,23.20
2022-09-07T09:15:08.395Z,23.20
2022-09-07T09:17:51.933Z,23.20
2022-09-07T09:20:34.275Z,23.20
2022-09-07T09:23:12.710Z,23.20
2022-09-07T09:25:45.688Z,23.20
2022-09-07T09:28:12.955Z,23.30
2022-09-07T09:30:39.674Z,23.30
2022-09-07T09:33:27.844Z,23.30
2022-09-07T09:35:56.337Z,23.30
2022-09-07T09:38:39.593Z,23.30
2022-09-07T09:41:10.105Z,23.30
2022-09-07T09:43:56.720Z,23.20
2022-09-07T09:46:27.247Z,23.20
2022-09-07T09:48:57.735Z,23.20
2022-09-07T09:54:37.197Z,23.20
2022-09-07T09:57:04.023Z,23.30
2022-09-07T10:05:40.260Z,23.30
2022-09-07T10:08:15.791Z,23.30
2022-09-07T10:10:57.398Z,23.30
2022-09-07T10:13:32.009Z,23.30
2022-09-07T10:16:02.782Z,23.40
2022-09-07T10:18:33.953Z,23.40
2022-09-07T10:21:29.194Z,23.40
2022-09-07T10:24:04.619Z,23.50
2022-09-07T10:26:33.060Z,23.50
2022-09-07T10:29:16.820Z,23.50
2022-09-07T10:32:01.518Z,23.50
2022-09-07T10:34:40.213Z,23.50
2022-09-07T10:37:10.088Z,23.50
2022-09-07T10:39:42.579Z,23.60
2022-09-07T10:42:09.263Z,23.60
2022-09-07T10:44:44.300Z,23.60
2022-09-07T10:47:38.939Z,23.60
2022-09-07T10:50:22.562Z,23.70
2022-09-07T10:52:55.183Z,23.70
2022-09-07T10:55:30.503Z,23.70
2022-09-07T10:58:12.301Z,23.80
2022-09-07T11:01:09.932Z,23.80
2022-09-07T11:04:01.625Z,23.80
2022-09-07T11:07:17.795Z,23.80
2022-09-07T11:09:58.711Z,23.90
2022-09-07T11:12:35.930Z,23.90
2022-09-07T11:15:23.708Z,23.90
2022-09-07T11:18:03.123Z,24.00
2022-09-07T11:20:35.471Z,24.00
2022-09-07T11:23:02.082Z,24.00
2022-09-07T11:25:39.205Z,24.00
2022-09-07T11:28:17.170Z,24.10
2022-09-07T11:30:50.014Z,24.10
2022-09-07T11:33:30.037Z,24.10
2022-09-07T11:36:11.956Z,24.10
2022-09-07T11:39:00.074Z,24.20
2022-09-07T11:41:30.842Z,24.20
2022-09-07T11:44:04.342Z,24.20
2022-09-07T11:46:41.577Z,24.20
2022-09-07T11:49:21.710Z,24.20
2022-09-07T11:52:04.976Z,24.20
2022-09-07T11:54:42.982Z,24.30
2022-09-07T11:57:15.834Z,24.30
2022-09-07T11:59:51.255Z,24.40
2022-09-07T12:02:58.085Z,24.40
2022-09-07T12:05:43.708Z,24.40
2022-09-07T12:08:46.512Z,24.50
2022-09-07T12:11:32.931Z,24.50
2022-09-07T12:14:28.150Z,24.50
2022-09-07T12:17:27.110Z,24.60
2022-09-07T12:23:05.361Z,24.60
2022-09-07T12:25:34.533Z,24.70
2022-09-07T12:28:01.815Z,24.70
2022-09-07T12:30:30.156Z,24.70
2022-09-07T12:32:58.637Z,24.80
2022-09-07T12:35:28.442Z,24.90
2022-09-07T12:37:57.117Z,24.90
2022-09-07T12:40:33.326Z,25.00
2022-09-07T12:43:15.270Z,25.00
2022-09-07T12:45:45.042Z,25.10
2022-09-07T12:53:55.502Z,25.20
2022-09-07T12:56:45.152Z,25.30
2022-09-07T12:59:21.484Z,25.40
2022-09-07T13:01:57.326Z,25.50
2022-09-07T13:04:50.189Z,25.50
2022-09-07T13:07:28.618Z,25.60
2022-09-07T13:10:16.645Z,25.60
2022-09-07T13:16:06.480Z,25.70
2022-09-07T13:18:36.162Z,25.80
2022-09-07T13:36:45.266Z,25.90
2022-09-07T13:39:15.866Z,26.20
2022-09-07T13:41:48.161Z,26.30
2022-09-07T13:44:29.313Z,26.30
2022-09-07T13:47:06.706Z,26.30
2022-09-07T13:50:05.863Z,26.40
2022-09-07T13:52:53.950Z,26.40
2022-09-07T13:55:32.872Z,26.40
2022-09-07T13:58:14.670Z,26.40
2022-09-07T14:00:56.393Z,26.40
2022-09-07T14:03:27.154Z,26.40
2022-09-07T14:06:13.095Z,26.40
2022-09-07T14:08:40.000Z,26.40
2022-09-07T14:11:18.506Z,26.50
2022-09-07T14:13:45.201Z,26.50
2022-09-07T14:16:12.194Z,26.40
2022-09-07T14:18:39.898Z,26.40
2022-09-07T14:21:09.564Z,26.40
2022-09-07T14:23:39.928Z,26.40
2022-09-07T14:26:23.110Z,26.40
2022-09-07T14:28:52.867Z,26.50
2022-09-07T14:31:22.571Z,26.50
2022-09-07T14:33:56.985Z,26.50
2022-09-07T14:36:47.699Z,26.50
2022-09-07T14:39:16.767Z,26.50
2022-09-07T14:41:44.208Z,26.50
2022-09-07T14:44:38.772Z,26.50
2022-09-07T14:47:29.672Z,26.50
2022-09-07T14:50:04.212Z,26.50
2022-09-07T14:52:43.093Z,26.40
2022-09-07T14:55:45.920Z,26.50
2022-09-07T14:58:15.618Z,26.40
2022-09-07T15:01:36.786Z,26.50
2022-09-07T15:04:00.831Z,26.40
2022-09-07T15:09:30.671Z,26.40
2022-09-07T15:12:38.204Z,26.40
2022-09-07T15:15:24.403Z,26.40
2022-09-07T15:17:52.883Z,26.40
2022-09-07T15:20:43.176Z,26.40
2022-09-07T15:25:45.427Z,26.40
2022-09-07T15:34:10.105Z,26.40
2022-09-07T15:36:40.327Z,26.40
2022-09-07T15:39:07.754Z,26.40
2022-09-07T15:41:34.858Z,26.40
2022-09-07T15:44:01.838Z,26.40
2022-09-07T15:46:28.541Z,26.40
2022-09-07T15:48:56.191Z,26.40
2022-09-07T15:54:13.177Z,26.40
2022-09-07T15:56:40.882Z,26.40
2022-09-07T15:59:07.716Z,26.30
2022-09-07T18:29:25.952Z,26.30
2022-09-07T18:31:56.723Z,25.90
2022-09-07T18:34:23.777Z,25.80
2022-09-07T18:36:50.962Z,25.80
2022-09-07T18:39:18.195Z,25.80
2022-09-07T18:41:44.884Z,25.80
2022-09-07T18:46:59.542Z,25.80
2022-09-07T18:49:26.313Z,25.70
2022-09-07T18:54:41.515Z,25.60
2022-09-07T18:57:09.342Z,25.70
2022-09-07T18:59:36.099Z,25.60
2022-09-07T19:02:04.924Z,25.60
2022-09-07T19:07:27.325Z,25.60
2022-09-07T19:09:56.412Z,25.50
2022-09-07T19:12:24.184Z,25.50
2022-09-07T19:14:51.138Z,25.50
2022-09-07T19:17:17.951Z,25.50
2022-09-07T19:19:44.768Z,25.50
2022-09-07T19:22:11.485Z,25.50
2022-09-07T19:24:38.208Z,25.50
2022-09-07T19:27:05.192Z,25.50
2022-09-07T19:29:31.828Z,25.40
2022-09-07T19:32:04.395Z,25.40
2022-09-07T19:34:38.661Z,25.40
2022-09-07T19:37:06.836Z,25.40
2022-09-07T19:39:33.801Z,25.40
2022-09-07T19:42:02.255Z,25.40
2022-09-07T19:44:28.962Z,25.40
2022-09-07T19:46:56.800Z,25.40
2022-09-07T19:49:23.609Z,25.40
2022-09-07T19:51:51.896Z,25.40
2022-09-07T19:54:18.896Z,25.30
2022-09-07T19:56:45.656Z,25.40
2022-09-07T19:59:13.189Z,25.40
2022-09-07T20:01:40.684Z,25.40
2022-09-07T20:04:13.800Z,25.40
2022-09-07T20:06:42.964Z,25.40
2022-09-07T20:09:10.235Z,25.40
2022-09-07T20:11:37.096Z,25.40
2022-09-07T20:14:04.124Z,25.40
2022-09-07T20:16:31.359Z,25.40
2022-09-07T20:18:58.872Z,25.40
2022-09-07T20:21:26.366Z,25.40
2022-09-07T20:23:53.021Z,25.40
2022-09-07T20:26:21.081Z,25.50
2022-09-07T20:29:05.896Z,25.40
2022-09-07T20:31:40.884Z,25.40
2022-09-07T20:34:09.324Z,25.50
2022-09-07T20:36:36.288Z,25.50
2022-09-07T20:39:04.643Z,25.40
2022-09-07T20:41:33.875Z,25.40
2022-09-07T20:44:02.495Z,25.50
2022-09-07T20:46:30.314Z,25.40
2022-09-07T20:48:57.492Z,25.40
2022-09-07T20:51:24.299Z,25.40
2022-09-07T20:53:51.179Z,25.40
2022-09-07T20:56:23.171Z,25.40
2022-09-07T20:58:54.633Z,25.40
2022-09-07T21:01:21.642Z,25.50
2022-09-07T21:03:50.731Z,25.50
2022-09-07T21:06:18.405Z,25.40
2022-09-07T21:08:46.764Z,25.40
2022-09-07T21:11:18.207Z,25.40
2022-09-07T21:13:46.649Z,25.40
2022-09-07T21:16:15.846Z,25.40
2022-09-07T21:18:44.339Z,25.40
2022-09-07T21:21:20.460Z,25.40
2022-09-07T21:23:47.932Z,25.40
2022-09-07T21:26:15.057Z,25.40
2022-09-07T21:28:41.739Z,25.40
2022-09-07T21:31:09.132Z,25.40
2022-09-07T21:33:37.691Z,25.40
2022-09-07T21:36:09.057Z,25.40
2022-09-07T21:38:36.959Z,25.40
2022-09-07T21:41:11.900Z,25.40
2022-09-07T21:43:39.498Z,25.40
2022-09-07T21:46:08.119Z,25.40
2022-09-07T21:48:35.124Z,25.40
2022-09-07T21:51:02.292Z,25.40
2022-09-07T21:53:29.071Z,25.40
2022-09-07T21:56:00.407Z,25.40
2022-09-07T21:58:28.682Z,25.40
2022-09-07T22:00:56.463Z,25.40
2022-09-07T22:03:25.286Z,25.30
2022-09-07T22:05:52.078Z,25.40
2022-09-07T22:08:19.252Z,25.40
2022-09-07T22:10:46.843Z,25.30
2022-09-07T22:13:13.527Z,25.30
2022-09-07T22:15:41.543Z,25.30
2022-09-07T22:18:11.813Z,25.30
2022-09-07T22:20:39.008Z,25.30
2022-09-07T22:23:05.854Z,25.30
2022-09-07T22:25:33.441Z,25.30
2022-09-07T22:28:00.276Z,25.30
2022-09-07T22:30:27.246Z,25.30
2022-09-07T22:32:54.208Z,25.30
2022-09-07T22:35:23.595Z,25.30
2022-09-07T22:37:50.239Z,25.30
2022-09-07T22:40:17.070Z,25.30
2022-09-07T22:42:43.789Z,25.30
2022-09-07T22:45:10.615Z,25.30
2022-09-07T22:47:37.315Z,25.30
2022-09-07T22:50:05.469Z,25.30
2022-09-07T22:52:32.201Z,25.30
2022-09-07T22:54:58.834Z,25.30
2022-09-07T22:57:25.523Z,25.30
2022-09-07T22:59:52.247Z,25.30
2022-09-07T23:02:18.929Z,25.30
2022-09-07T23:04:46.705Z,25.30
2022-09-07T23:07:13.430Z,25.30
2022-09-07T23:09:40.224Z,25.30
2022-09-07T23:12:07.339Z,25.30
2022-09-07T23:14:34.226Z,25.30
2022-09-07T23:17:00.886Z,25.30
2022-09-07T23:19:27.808Z,25.30
2022-09-07T23:21:55.151Z,25.30
2022-09-07T23:24:22.009Z,25.20
2022-09-07T23:26:49.261Z,25.30
2022-09-07T23:29:16.479Z,25.30
2022-09-07T23:31:45.457Z,25.20
2022-09-07T23:34:12.236Z,25.30
2022-09-07T23:36:39.118Z,25.20
2022-09-07T23:39:07.840Z,25.30
2022-09-07T23:41:34.516Z,25.20
2022-09-07T23:44:01.545Z,25.20
2022-09-07T23:46:28.316Z,25.20
2022-09-07T23:48:55.088Z,25.30
2022-09-07T23:51:24.462Z,25.20
2022-09-07T23:53:52.283Z,25.20
2022-09-07T23:56:19.283Z,25.30
2022-09-07T23:58:45.942Z,25.20
